Time;durP1;ratioP1;P1;durP2;ratioP2;P2;SDS_P1;SDS_P2;PMS_P1;PMS_P2;Temp;Humidity;BMP_temperature;BMP_pressure;BME280_temperature;BME280_humidity;BME280_pressure;Samples;Min_cycle;Max_cycle;Signal;HPM_P1;HPM_P2
2022/01/22 00:01:29;;;;;;;11.52;6.20;;;3.90;66.50;;;;;;5071207;28;20059;-68
2022/01/22 00:03:55;;;;;;;12.23;6.10;;;3.90;66.20;;;;;;5072364;28;20442;-70
2022/01/22 00:06:21;;;;;;;12.10;6.72;;;3.90;66.70;;;;;;5063203;28;20036;-68
2022/01/22 00:08:46;;;;;;;10.57;6.35;;;3.90;66.70;;;;;;5047891;28;20038;-68
2022/01/22 00:11:12;;;;;;;9.40;5.65;;;3.90;66.90;;;;;;5065160;28;20158;-70
2022/01/22 00:16:23;;;;;;;11.20;6.57;;;4.00;66.50;;;;;;5069356;28;20568;-70
2022/01/22 00:18:49;;;;;;;13.60;7.15;;;3.90;66.70;;;;;;5051652;28;20391;-70
2022/01/22 00:21:14;;;;;;;10.35;6.05;;;4.00;66.60;;;;;;5070115;28;20032;-69
2022/01/22 00:23:45;;;;;;;11.32;6.28;;;4.00;66.50;;;;;;5069155;28;20386;-68
2022/01/22 00:26:11;;;;;;;10.68;6.95;;;4.00;67.00;;;;;;5046221;28;20028;-70
2022/01/22 00:28:37;;;;;;;11.68;6.78;;;4.00;67.10;;;;;;5069940;28;20032;-70
2022/01/22 00:31:02;;;;;;;14.35;6.75;;;4.10;67.00;;;;;;5069289;28;20109;-70
2022/01/22 00:33:28;;;;;;;10.93;6.22;;;4.10;67.60;;;;;;5069409;28;20032;-66
2022/01/22 00:35:54;;;;;;;10.93;6.88;;;4.10;67.80;;;;;;5068189;28;20024;-71
2022/01/22 00:38:20;;;;;;;10.02;6.57;;;4.10;68.70;;;;;;5069698;28;20017;-69
2022/01/22 00:40:51;;;;;;;11.32;6.38;;;4.10;69.30;;;;;;5069294;28;20050;-70
2022/01/22 00:43:17;;;;;;;10.60;5.95;;;4.10;70.10;;;;;;5070023;28;20025;-69
2022/01/22 00:45:42;;;;;;;12.75;6.80;;;4.00;70.70;;;;;;5069052;28;20024;-69
2022/01/22 00:48:08;;;;;;;11.75;7.38;;;4.00;69.80;;;;;;5069254;28;20485;-69
2022/01/22 00:50:34;;;;;;;9.10;6.18;;;4.00;69.80;;;;;;5069927;28;20031;-67
2022/01/22 00:53:00;;;;;;;11.27;6.38;;;4.00;69.90;;;;;;5054563;28;20060;-67
2022/01/22 00:55:25;;;;;;;11.88;6.72;;;4.00;70.10;;;;;;5071158;28;20031;-68
2022/01/22 00:57:51;;;;;;;11.60;6.22;;;4.00;70.30;;;;;;5063421;28;20079;-67
2022/01/22 01:00:18;;;;;;;8.23;5.65;;;4.10;71.20;;;;;;5067684;28;20032;-69
2022/01/22 01:02:45;;;;;;;9.27;5.10;;;4.00;72.70;;;;;;5070643;28;20083;-68
2022/01/22 01:05:12;;;;;;;9.57;5.53;;;4.00;73.90;;;;;;5056617;28;20142;-70
2022/01/22 01:07:38;;;;;;;8.60;5.22;;;3.90;74.10;;;;;;5069035;28;20041;-68
2022/01/22 01:10:06;;;;;;;8.05;5.13;;;3.90;74.90;;;;;;5063737;28;20048;-68
2022/01/22 01:12:33;;;;;;;8.27;5.03;;;3.90;75.70;;;;;;5073815;28;20028;-68
2022/01/22 01:33:59;;;;;;;7.15;4.22;;;3.60;78.60;;;;;;5093914;28;20082;-70
2022/01/22 01:36:24;;;;;;;8.07;4.60;;;3.70;78.60;;;;;;5094573;28;20036;-69
2022/01/22 01:38:55;;;;;;;5.95;3.97;;;3.70;78.60;;;;;;5093709;28;20062;-68
2022/01/22 01:41:31;;;;;;;7.85;4.25;;;3.60;78.50;;;;;;5094592;28;20020;-68
2022/01/22 01:43:57;;;;;;;7.32;3.63;;;3.70;78.40;;;;;;5094112;28;20032;-70
2022/01/22 01:46:25;;;;;;;6.28;4.25;;;3.70;78.70;;;;;;5094246;28;20097;-69
2022/01/22 01:48:51;;;;;;;8.25;4.10;;;3.70;79.00;;;;;;5093822;28;20449;-69
2022/01/22 01:51:17;;;;;;;6.85;3.70;;;3.60;79.30;;;;;;5077581;28;20056;-69
2022/01/22 01:58:55;;;;;;;6.18;4.10;;;3.60;79.90;;;;;;5068554;28;20503;-70
2022/01/22 02:01:21;;;;;;;6.63;3.90;;;3.60;79.20;;;;;;5093324;28;20020;-69
2022/01/22 02:03:48;;;;;;;5.90;3.75;;;3.60;79.30;;;;;;5091526;28;20104;-69
2022/01/22 02:06:14;;;;;;;6.85;3.95;;;3.50;79.20;;;;;;5093163;28;20059;-71
2022/01/22 02:08:39;;;;;;;5.60;3.50;;;3.70;79.00;;;;;;5087902;28;20063;-68
2022/01/22 02:11:05;;;;;;;7.13;3.50;;;3.70;78.00;;;;;;5093048;28;20024;-69
2022/01/22 02:24:42;;;;;;;6.53;3.55;;;3.70;79.10;;;;;;5089348;28;20043;-69
2022/01/22 02:27:08;;;;;;;5.93;3.13;;;3.70;79.60;;;;;;5073853;28;20024;-69
2022/01/22 02:29:34;;;;;;;6.88;4.18;;;3.60;79.40;;;;;;5090318;28;20032;-67
2022/01/22 02:32:24;;;;;;;6.53;4.20;;;3.70;79.80;;;;;;5092010;28;20028;-69
2022/01/22 02:34:55;;;;;;;9.07;3.67;;;3.70;79.40;;;;;;5089004;28;20538;-68
2022/01/22 02:37:23;;;;;;;7.38;3.55;;;3.70;79.70;;;;;;5087613;28;20429;-69
2022/01/22 02:40:36;;;;;;;7.32;3.95;;;3.70;80.20;;;;;;5090430;28;20481;-71
2022/01/22 02:42:38;;;;;;;6.95;4.00;;;3.60;81.10;;;;;;5079884;28;20188;-70
2022/01/22 02:45:09;;;;;;;10.30;3.65;;;3.60;81.80;;;;;;5073262;28;20118;-70
2022/01/22 02:47:35;;;;;;;5.03;3.33;;;3.40;82.40;;;;;;5090916;28;20090;-69
2022/01/22 02:50:01;;;;;;;5.68;3.60;;;3.30;84.20;;;;;;5090924;28;20047;-69
2022/01/22 02:52:27;;;;;;;5.32;3.70;;;3.20;84.90;;;;;;5090554;28;20397;-69
2022/01/22 02:54:53;;;;;;;5.47;3.75;;;3.10;85.80;;;;;;5090314;28;20535;-69
2022/01/22 02:57:19;;;;;;;6.03;3.70;;;3.00;86.10;;;;;;5072644;28;20455;-71
2022/01/22 02:59:45;;;;;;;7.43;3.70;;;3.00;87.20;;;;;;5091399;28;20217;-69
2022/01/22 03:02:14;;;;;;;10.52;3.88;;;2.90;87.40;;;;;;5091330;28;20035;-69
2022/01/22 03:04:40;;;;;;;7.63;4.05;;;2.90;87.90;;;;;;5089593;28;20554;-69
2022/01/22 03:07:07;;;;;;;7.30;3.58;;;2.90;88.40;;;;;;5073792;28;20422;-69
2022/01/22 03:09:40;;;;;;;5.35;3.80;;;2.80;88.20;;;;;;5091223;28;20028;-70
2022/01/22 03:22:16;;;;;;;7.30;3.23;;;2.80;88.30;;;;;;5071137;28;20508;-70
2022/01/22 03:27:29;;;;;;;5.80;2.90;;;2.90;87.40;;;;;;5070429;28;20082;-71
2022/01/22 03:29:56;;;;;;;3.38;2.22;;;3.00;87.50;;;;;;5070158;28;20108;-71
2022/01/22 03:32:23;;;;;;;3.78;2.38;;;3.00;86.10;;;;;;5052802;28;20457;-71
2022/01/22 03:35:00;;;;;;;4.35;2.13;;;3.00;86.90;;;;;;5070292;28;20068;-71
2022/01/22 03:37:28;;;;;;;3.25;2.00;;;3.00;87.30;;;;;;5071678;28;20510;-72
2022/01/22 03:39:55;;;;;;;3.60;2.40;;;3.10;85.90;;;;;;5051915;28;20059;-72
2022/01/22 03:42:21;;;;;;;3.08;1.70;;;3.10;86.20;;;;;;5052556;28;20043;-71
2022/01/22 03:44:47;;;;;;;3.80;1.90;;;3.20;86.00;;;;;;5072086;28;20029;-70
2022/01/22 03:47:13;;;;;;;4.75;2.20;;;3.10;85.80;;;;;;5071129;28;20025;-70
2022/01/22 03:49:39;;;;;;;3.28;2.22;;;3.10;85.90;;;;;;5070785;28;20082;-69
2022/01/22 03:52:06;;;;;;;4.05;2.30;;;3.10;86.40;;;;;;5071752;28;20420;-70
2022/01/22 03:54:33;;;;;;;4.30;2.15;;;3.00;86.90;;;;;;5054335;28;20101;-70
2022/01/22 03:56:59;;;;;;;3.33;1.88;;;3.00;87.60;;;;;;5071756;28;20040;-73
2022/01/22 03:59:28;;;;;;;3.72;1.90;;;3.00;88.00;;;;;;5056434;28;20036;-70
2022/01/22 04:04:27;;;;;;;5.40;2.35;;;3.00;88.30;;;;;;5070229;28;20086;-70
2022/01/22 04:09:29;;;;;;;3.42;1.63;;;3.10;87.80;;;;;;5071133;28;20526;-71
2022/01/22 04:11:57;;;;;;;6.00;2.00;;;3.00;88.20;;;;;;5052181;28;20413;-70
2022/01/22 04:14:28;;;;;;;2.67;2.10;;;2.90;89.00;;;;;;5085211;28;20050;-71
2022/01/22 04:17:10;;;;;;;5.47;2.45;;;2.80;89.90;;;;;;5072147;28;20040;-70
2022/01/22 04:25:06;;;;;;;2.55;2.10;;;2.40;91.50;;;;;;5091041;28;20035;-70
2022/01/22 04:27:31;;;;;;;8.07;2.78;;;2.40;91.70;;;;;;5090780;28;20492;-69
2022/01/22 04:29:59;;;;;;;3.80;2.33;;;2.40;91.90;;;;;;5090203;28;20024;-69
2022/01/22 04:32:30;;;;;;;4.68;2.13;;;2.50;91.90;;;;;;5090570;28;20020;-71
2022/01/22 04:34:56;;;;;;;4.60;2.00;;;2.50;91.60;;;;;;5072146;28;20321;-70
2022/01/22 04:37:42;;;;;;;3.17;2.05;;;2.50;91.60;;;;;;5067464;28;20028;-70
2022/01/22 04:40:08;;;;;;;3.95;2.08;;;2.60;91.90;;;;;;5069281;28;20055;-71
2022/01/22 04:42:37;;;;;;;9.82;1.88;;;2.60;91.90;;;;;;5094274;28;20028;-69
2022/01/22 04:45:15;;;;;;;3.97;2.08;;;2.60;91.90;;;;;;5076142;28;20453;-72
2022/01/22 04:55:30;;;;;;;2.22;1.80;;;2.80;91.80;;;;;;5084368;28;20028;-69
2022/01/22 04:57:56;;;;;;;3.65;1.95;;;2.80;91.70;;;;;;5075267;28;20040;-70
2022/01/22 05:00:23;;;;;;;2.70;1.90;;;2.80;91.70;;;;;;5094140;28;20032;-70
2022/01/22 05:02:50;;;;;;;4.07;2.05;;;2.80;91.60;;;;;;5092836;28;20032;-69
2022/01/22 05:05:15;;;;;;;3.33;1.70;;;2.80;91.80;;;;;;5094313;28;20104;-68
2022/01/22 05:07:41;;;;;;;6.65;2.15;;;2.80;91.80;;;;;;5074228;28;20032;-70
2022/01/22 05:10:08;;;;;;;3.35;1.90;;;2.70;92.00;;;;;;5093878;28;20036;-71
2022/01/22 05:12:34;;;;;;;4.15;1.65;;;2.70;92.10;;;;;;5093861;28;20024;-71
2022/01/22 05:15:00;;;;;;;4.47;2.10;;;2.80;92.20;;;;;;5093204;28;20578;-70
2022/01/22 05:17:26;;;;;;;2.83;1.70;;;2.80;91.80;;;;;;5093677;28;20021;-71
2022/01/22 05:20:07;;;;;;;5.85;1.90;;;2.80;92.20;;;;;;5092719;28;20566;-70
2022/01/22 05:25:03;;;;;;;2.58;2.03;;;2.80;92.40;;;;;;5092890;28;20687;-72
2022/01/22 05:33:00;;;;;;;2.53;1.95;;;2.80;92.60;;;;;;5092881;28;20085;-73
2022/01/22 05:38:18;;;;;;;4.13;2.08;;;2.90;92.00;;;;;;5069609;28;20035;-75
2022/01/22 05:40:44;;;;;;;3.55;1.70;;;2.90;92.50;;;;;;5092997;28;20028;-76
2022/01/22 05:43:10;;;;;;;3.40;1.83;;;2.90;92.30;;;;;;5092667;28;20089;-77
2022/01/22 05:45:36;;;;;;;3.67;2.00;;;3.00;92.40;;;;;;5093446;28;20840;-78
2022/01/22 05:48:02;;;;;;;2.65;1.98;;;3.00;92.00;;;;;;5092782;28;20024;-77
2022/01/22 05:50:35;;;;;;;3.13;1.80;;;3.00;92.40;;;;;;5092571;28;20487;-79
2022/01/22 05:53:07;;;;;;;3.53;2.17;;;3.10;92.30;;;;;;5092674;28;20066;-79
2022/01/22 06:01:01;;;;;;;5.65;2.38;;;3.00;92.70;;;;;;5092800;28;20035;-80
2022/01/22 06:03:27;;;;;;;2.92;2.10;;;3.00;92.90;;;;;;5074885;28;20032;-81
2022/01/22 06:05:52;;;;;;;3.78;2.33;;;3.00;92.80;;;;;;5092456;28;20030;-79
2022/01/22 06:08:18;;;;;;;3.22;2.13;;;3.00;92.60;;;;;;5075173;28;20039;-79
2022/01/22 06:10:53;;;;;;;3.33;2.05;;;3.10;92.70;;;;;;5074533;28;20074;-78
2022/01/22 06:13:21;;;;;;;5.18;2.38;;;3.10;92.60;;;;;;5076670;28;20048;-79
2022/01/22 06:15:46;;;;;;;3.72;2.30;;;3.20;92.70;;;;;;5090871;28;20035;-78
2022/01/22 06:18:12;;;;;;;3.85;2.75;;;3.20;93.00;;;;;;5092281;28;20123;-77
2022/01/22 06:20:38;;;;;;;3.75;2.70;;;3.20;93.20;;;;;;5092934;28;20496;-71
2022/01/22 06:23:04;;;;;;;3.97;2.80;;;3.20;92.90;;;;;;5092324;28;20389;-77
2022/01/22 06:25:29;;;;;;;5.45;2.72;;;3.20;92.80;;;;;;5093030;28;20028;-77
2022/01/22 06:27:55;;;;;;;4.65;2.60;;;3.20;92.30;;;;;;5091076;28;20020;-77
2022/01/22 06:30:22;;;;;;;4.07;2.97;;;3.20;92.60;;;;;;5092970;28;20024;-77
2022/01/22 06:32:47;;;;;;;5.70;2.70;;;3.20;92.60;;;;;;5092312;28;20016;-78
2022/01/22 06:35:13;;;;;;;4.80;2.45;;;3.10;92.00;;;;;;5092854;28;20024;-75
2022/01/22 06:42:49;;;;;;;5.57;3.40;;;3.00;92.80;;;;;;5077467;28;20036;-75
2022/01/22 06:45:15;;;;;;;9.20;4.30;;;3.10;92.90;;;;;;5071184;28;20028;-74
2022/01/22 06:47:41;;;;;;;11.43;5.65;;;3.20;93.20;;;;;;5089044;28;20020;-69
2022/01/22 06:50:08;;;;;;;4.63;3.65;;;3.40;93.50;;;;;;5091105;28;20465;-74
2022/01/22 06:52:33;;;;;;;5.13;3.63;;;3.50;93.10;;;;;;5090689;28;20040;-75
2022/01/22 06:54:59;;;;;;;6.25;3.30;;;3.50;92.70;;;;;;5089447;28;20027;-74
2022/01/22 06:57:25;;;;;;;4.82;2.97;;;3.60;92.70;;;;;;5091547;28;20024;-75
2022/01/22 06:59:50;;;;;;;3.45;2.70;;;3.60;92.50;;;;;;5090600;28;20447;-77
2022/01/22 07:02:17;;;;;;;5.03;3.33;;;3.70;92.70;;;;;;5090669;28;20070;-75
2022/01/22 07:05:02;;;;;;;4.05;3.10;;;3.70;93.10;;;;;;5089786;28;20592;-76
2022/01/22 07:07:27;;;;;;;4.38;3.13;;;3.80;93.00;;;;;;5089010;28;20035;-74
2022/01/22 07:09:53;;;;;;;4.85;3.55;;;3.70;93.10;;;;;;5090516;28;20036;-77
2022/01/22 07:12:19;;;;;;;5.75;3.22;;;3.80;93.30;;;;;;5090816;28;20546;-72
2022/01/22 07:14:48;;;;;;;6.00;3.00;;;3.80;93.20;;;;;;5067195;28;20382;-75
2022/01/22 07:17:14;;;;;;;3.95;2.63;;;3.80;92.70;;;;;;5070807;28;20078;-74
2022/01/22 07:19:41;;;;;;;4.45;2.80;;;3.80;92.70;;;;;;5070297;28;20075;-70
2022/01/22 07:22:32;;;;;;;3.08;2.30;;;3.80;93.20;;;;;;5053654;28;20024;-74
2022/01/22 07:24:53;;;;;;;2.75;2.38;;;3.80;92.70;;;;;;5068777;28;20032;-75
2022/01/22 07:27:18;;;;;;;3.47;2.35;;;3.80;93.20;;;;;;5070166;28;20576;-75
2022/01/22 07:29:44;;;;;;;2.25;1.90;;;3.90;93.30;;;;;;5069738;28;20482;-74
2022/01/22 07:32:17;;;;;;;3.03;2.20;;;4.00;92.90;;;;;;5047173;28;20027;-75
2022/01/22 07:34:43;;;;;;;2.60;2.08;;;4.00;93.00;;;;;;5060233;28;20123;-73
2022/01/22 07:37:09;;;;;;;2.53;2.13;;;4.00;92.50;;;;;;5062067;28;20128;-74
2022/01/22 07:39:34;;;;;;;3.15;2.30;;;4.00;92.80;;;;;;5063411;28;20477;-75
2022/01/22 07:42:01;;;;;;;2.60;1.92;;;4.00;93.00;;;;;;5068670;28;20028;-73
2022/01/22 07:44:28;;;;;;;2.95;2.38;;;4.10;93.20;;;;;;5070842;28;20024;-74
2022/01/22 07:49:38;;;;;;;5.93;2.67;;;4.20;92.90;;;;;;5066232;28;20047;-72
2022/01/22 07:52:06;;;;;;;3.53;1.95;;;4.30;93.00;;;;;;5050705;28;20032;-72
2022/01/22 07:54:45;;;;;;;2.72;2.17;;;4.30;92.30;;;;;;5070644;28;20042;-75
2022/01/22 07:57:13;;;;;;;3.97;2.67;;;4.40;92.10;;;;;;5065614;28;20039;-74
2022/01/22 07:59:38;;;;;;;3.95;2.80;;;4.40;92.30;;;;;;5048481;28;20051;-74
2022/01/22 08:02:05;;;;;;;4.22;2.50;;;4.50;92.00;;;;;;5068482;28;20032;-75
2022/01/22 08:04:33;;;;;;;2.90;2.08;;;4.50;91.70;;;;;;5051275;28;20024;-74
2022/01/22 08:07:00;;;;;;;3.67;1.83;;;4.60;92.00;;;;;;5049261;28;20547;-74
2022/01/22 08:09:26;;;;;;;3.25;2.10;;;4.70;92.10;;;;;;5051093;28;20040;-70
2022/01/22 08:11:53;;;;;;;3.17;2.20;;;4.90;92.60;;;;;;5035547;28;20037;-74
2022/01/22 08:14:18;;;;;;;3.20;2.30;;;4.90;92.20;;;;;;5063400;28;20041;-73
2022/01/22 08:16:46;;;;;;;4.32;2.15;;;4.90;91.80;;;;;;5069628;28;20055;-74
2022/01/22 08:19:12;;;;;;;2.22;1.80;;;4.90;91.80;;;;;;5070215;28;20101;-73
2022/01/22 08:21:38;;;;;;;3.10;1.90;;;5.00;92.10;;;;;;5067999;28;20044;-72
2022/01/22 08:24:04;;;;;;;3.88;1.83;;;5.00;91.20;;;;;;5069760;28;20032;-73
2022/01/22 08:26:35;;;;;;;3.03;2.05;;;5.00;91.30;;;;;;5068237;28;20131;-74
2022/01/22 08:29:03;;;;;;;2.90;2.10;;;5.10;91.60;;;;;;5069951;28;20027;-74
2022/01/22 08:36:45;;;;;;;2.45;1.88;;;5.40;91.90;;;;;;5068471;28;20119;-73
2022/01/22 08:39:13;;;;;;;5.13;2.10;;;5.40;91.90;;;;;;5064321;28;20056;-72
2022/01/22 08:41:38;;;;;;;3.03;2.10;;;5.40;91.20;;;;;;5048370;28;20017;-73
2022/01/22 08:44:05;;;;;;;2.47;1.98;;;5.40;91.20;;;;;;5049328;28;20036;-76
2022/01/22 08:46:31;;;;;;;2.67;1.50;;;5.50;91.60;;;;;;5048245;28;20382;-73
2022/01/22 08:48:57;;;;;;;2.38;1.73;;;5.60;92.00;;;;;;5049155;28;20067;-74
2022/01/22 08:51:23;;;;;;;2.92;2.15;;;5.70;91.70;;;;;;5055403;28;20029;-75
2022/01/22 08:53:50;;;;;;;3.92;2.05;;;5.80;91.40;;;;;;5068506;28;20051;-74
2022/01/22 08:56:16;;;;;;;2.53;1.67;;;5.70;90.40;;;;;;5069075;28;20021;-72
2022/01/22 08:58:42;;;;;;;2.95;1.80;;;5.80;90.30;;;;;;5067899;28;20048;-73
2022/01/22 09:01:08;;;;;;;2.90;1.75;;;5.80;90.90;;;;;;5050872;28;20123;-73
2022/01/22 09:03:34;;;;;;;2.17;1.50;;;5.80;90.90;;;;;;5049719;28;20128;-71
2022/01/22 09:06:04;;;;;;;2.85;1.88;;;5.90;90.60;;;;;;5068110;28;20107;-71
2022/01/22 09:08:30;;;;;;;2.85;1.73;;;6.00;91.00;;;;;;5067603;28;20482;-69
2022/01/22 09:10:56;;;;;;;3.60;1.95;;;6.00;91.40;;;;;;5069165;28;20035;-70
2022/01/22 09:13:40;;;;;;;6.80;2.17;;;6.00;89.70;;;;;;5067594;28;20044;-71
2022/01/22 09:16:05;;;;;;;3.53;2.10;;;6.10;90.10;;;;;;5050739;28;20039;-71
2022/01/22 09:18:32;;;;;;;4.20;1.90;;;6.10;90.30;;;;;;5067263;28;20401;-71
2022/01/22 09:23:26;;;;;;;2.80;1.60;;;6.20;90.80;;;;;;5070197;28;20450;-72
2022/01/22 09:25:52;;;;;;;2.35;1.63;;;6.30;90.40;;;;;;5050884;28;20070;-71
2022/01/22 09:28:18;;;;;;;4.15;1.98;;;6.40;90.30;;;;;;5048216;28;20028;-72
2022/01/22 09:30:44;;;;;;;3.08;1.95;;;6.50;88.80;;;;;;5053746;28;21565;-71
2022/01/22 09:33:10;;;;;;;3.58;1.73;;;6.50;89.90;;;;;;5054328;28;20028;-72
2022/01/22 09:35:36;;;;;;;4.13;2.00;;;6.50;89.90;;;;;;5071486;28;20071;-71
2022/01/22 09:38:02;;;;;;;3.13;1.67;;;6.70;90.30;;;;;;5054632;28;20403;-70
2022/01/22 09:40:29;;;;;;;3.00;2.08;;;6.80;89.30;;;;;;5070780;28;20029;-69
2022/01/22 09:42:57;;;;;;;2.58;1.75;;;6.90;88.70;;;;;;5072498;28;20035;-70
2022/01/22 09:45:23;;;;;;;3.28;2.15;;;7.00;89.10;;;;;;5073567;28;20028;-70
2022/01/22 09:47:49;;;;;;;4.50;1.90;;;7.00;88.50;;;;;;5072481;28;20021;-70
2022/01/22 09:50:20;;;;;;;2.65;1.58;;;6.90;88.30;;;;;;5069601;28;20032;-70
2022/01/22 09:53:05;;;;;;;3.88;2.15;;;6.90;87.50;;;;;;5054335;28;20037;-71
2022/01/22 09:55:31;;;;;;;4.55;1.73;;;6.80;84.80;;;;;;5063180;28;20029;-68
2022/01/22 09:57:58;;;;;;;2.50;1.63;;;6.80;87.40;;;;;;5054855;28;20084;-70
2022/01/22 10:00:25;;;;;;;4.55;2.20;;;6.90;86.60;;;;;;5073601;28;20107;-70
2022/01/22 10:02:53;;;;;;;3.40;2.08;;;6.90;84.80;;;;;;5054710;28;20433;-69
2022/01/22 10:05:37;;;;;;;3.65;2.20;;;7.00;85.60;;;;;;5072174;28;20039;-70
2022/01/22 10:08:19;;;;;;;;;;;7.10;85.70;;;;;;5072877;28;20052;-72
2022/01/22 10:10:46;;;;;;;3.63;2.28;;;7.20;86.00;;;;;;5064540;28;20417;-69
2022/01/22 10:13:12;;;;;;;2.83;1.98;;;7.30;87.50;;;;;;5061926;28;20055;-71
2022/01/22 10:15:39;;;;;;;2.85;1.75;;;7.40;87.90;;;;;;5062491;28;20095;-70
2022/01/22 10:18:06;;;;;;;3.20;2.03;;;7.40;86.50;;;;;;5070884;28;20655;-70
2022/01/22 10:20:40;;;;;;;4.68;2.38;;;7.40;84.70;;;;;;5069519;28;20028;-68
2022/01/22 10:23:22;;;;;;;7.22;3.10;;;7.40;84.50;;;;;;5069754;28;20392;-69
2022/01/22 10:25:55;;;;;;;5.20;2.20;;;7.40;85.90;;;;;;5069811;28;20067;-70
2022/01/22 10:28:23;;;;;;;3.15;1.90;;;7.50;85.10;;;;;;5070495;28;20040;-68
2022/01/22 10:31:07;;;;;;;6.30;1.70;;;7.50;81.20;;;;;;5052369;28;20043;-69
2022/01/22 10:33:34;;;;;;;;;;;7.50;82.50;;;;;;5064866;28;20028;-68
2022/01/22 10:36:19;;;;;;;3.03;1.90;;;7.50;82.80;;;;;;5052509;28;19904;-69
2022/01/22 10:38:52;;;;;;;3.05;1.95;;;7.60;82.80;;;;;;5069561;28;20031;-71
2022/01/22 10:41:41;;;;;;;4.50;2.10;;;7.70;79.80;;;;;;5049535;28;20024;-70
2022/01/22 10:44:14;;;;;;;4.90;2.22;;;7.60;76.80;;;;;;5053344;28;20021;-70
2022/01/22 10:47:02;;;;;;;4.05;2.67;;;7.60;78.60;;;;;;5066873;28;20036;-69
2022/01/22 10:49:28;;;;;;;3.28;2.30;;;7.60;76.90;;;;;;5066114;28;20024;-66
2022/01/22 10:52:10;;;;;;;3.40;2.00;;;7.60;75.80;;;;;;5039406;28;20470;-66
2022/01/22 10:54:38;;;;;;;5.70;2.00;;;7.60;78.10;;;;;;5047476;28;20074;-65
2022/01/22 10:57:15;;;;;;;4.50;1.95;;;7.70;79.10;;;;;;5035749;28;20127;-67
2022/01/22 10:59:49;;;;;;;5.35;1.98;;;7.60;76.70;;;;;;5060671;28;20025;-67
2022/01/22 11:02:17;;;;;;;2.60;1.70;;;7.60;74.20;;;;;;5056235;28;20036;-66
2022/01/22 11:04:45;;;;;;;1.75;1.33;;;7.60;77.50;;;;;;5042084;28;20032;-67
2022/01/22 11:07:19;;;;;;;3.33;1.83;;;7.50;74.00;;;;;;5062073;28;20034;-67
2022/01/22 11:09:46;;;;;;;2.53;1.58;;;7.40;70.70;;;;;;5068328;28;20082;-66
2022/01/22 11:12:13;;;;;;;2.58;1.35;;;7.40;73.20;;;;;;5052056;28;20025;-66
2022/01/22 11:14:40;;;;;;;3.95;1.65;;;7.60;70.80;;;;;;5073521;28;20051;-68
2022/01/22 11:17:24;;;;;;;2.00;1.35;;;7.80;71.50;;;;;;5082326;28;20034;-65
2022/01/22 11:20:10;;;;;;;4.35;1.63;;;7.80;70.30;;;;;;5088439;28;20111;-66
2022/01/22 11:22:36;;;;;;;3.67;1.52;;;8.10;70.00;;;;;;5086074;28;20417;-66
2022/01/22 11:25:02;;;;;;;3.08;1.80;;;8.20;66.20;;;;;;5086244;28;20051;-68
2022/01/22 11:27:29;;;;;;;2.20;1.35;;;8.00;65.90;;;;;;5086591;28;20061;-67
2022/01/22 11:30:01;;;;;;;6.50;2.50;;;7.90;64.90;;;;;;5087789;28;20426;-66
2022/01/22 11:32:49;;;;;;;4.47;2.00;;;7.90;65.50;;;;;;5081066;28;20051;-66
2022/01/22 11:35:23;;;;;;;2.33;1.40;;;7.90;65.50;;;;;;5087374;28;20028;-67
2022/01/22 11:37:57;;;;;;;3.78;1.77;;;7.80;65.60;;;;;;5085936;28;20027;-67
2022/01/22 11:40:26;;;;;;;3.15;1.98;;;7.80;67.30;;;;;;5086531;28;20479;-67
2022/01/22 11:43:09;;;;;;;2.95;1.83;;;7.70;67.10;;;;;;5086050;28;20265;-67
2022/01/22 11:45:49;;;;;;;4.50;2.17;;;7.50;63.70;;;;;;5081557;28;20028;-65
2022/01/22 11:48:17;;;;;;;4.47;2.22;;;7.40;64.10;;;;;;5079275;28;20032;-66
2022/01/22 11:50:46;;;;;;;5.00;2.85;;;7.40;66.40;;;;;;5088112;28;20055;-66
2022/01/22 11:53:33;;;;;;;3.53;2.20;;;7.40;67.90;;;;;;5084989;28;20070;-67
2022/01/22 11:56:10;;;;;;;5.95;2.30;;;7.20;67.80;;;;;;5088368;28;20059;-67
2022/01/22 11:58:59;;;;;;;4.03;2.60;;;7.00;66.20;;;;;;5089175;28;20024;-65
2022/01/22 12:04:17;;;;;;;4.70;2.67;;;6.80;72.40;;;;;;5088224;28;20039;-65
2022/01/22 12:07:01;;;;;;;4.60;2.42;;;6.80;69.70;;;;;;5089074;28;20020;-66
2022/01/22 12:15:16;;;;;;;7.13;3.50;;;6.80;69.90;;;;;;5087122;28;20408;-68
2022/01/22 12:17:57;;;;;;;4.47;2.15;;;6.50;69.10;;;;;;5087058;28;20093;-66
2022/01/22 12:23:05;;;;;;;3.95;2.10;;;6.50;67.90;;;;;;5090113;28;20418;-66
2022/01/22 12:25:30;;;;;;;5.25;2.25;;;6.40;67.50;;;;;;5087016;28;20138;-66
2022/01/22 12:27:58;;;;;;;8.13;2.50;;;6.40;67.60;;;;;;5088903;28;20334;-66
2022/01/22 12:30:39;;;;;;;5.60;2.80;;;6.40;68.40;;;;;;5089763;28;20036;-66
2022/01/22 12:33:12;;;;;;;4.05;2.15;;;6.30;67.50;;;;;;5089223;28;20035;-66
2022/01/22 12:35:39;;;;;;;5.85;2.85;;;6.20;67.30;;;;;;5087421;28;20017;-66
2022/01/22 12:41:13;;;;;;;6.55;2.65;;;6.10;69.60;;;;;;5083995;28;20031;-66
2022/01/22 12:43:40;;;;;;;5.13;2.60;;;6.10;68.40;;;;;;5087264;28;20039;-66
2022/01/22 12:46:06;;;;;;;6.28;3.17;;;6.10;68.30;;;;;;5087830;28;20036;-66
2022/01/22 12:48:38;;;;;;;5.50;2.83;;;6.20;68.90;;;;;;5089478;28;20149;-67
2022/01/22 12:51:06;;;;;;;5.18;2.47;;;6.40;68.30;;;;;;5088434;28;20436;-66
2022/01/22 12:53:34;;;;;;;4.95;2.63;;;6.40;66.00;;;;;;5086774;28;20028;-68
2022/01/22 12:56:24;;;;;;;4.40;2.53;;;6.40;67.00;;;;;;5079271;28;20031;-67
2022/01/22 12:58:47;;;;;;;4.80;2.30;;;6.40;65.30;;;;;;5089765;28;20380;-66
2022/01/22 13:04:36;;;;;;;7.93;3.15;;;6.40;65.00;;;;;;5092045;28;20049;-74
2022/01/22 13:07:10;;;;;;;8.63;2.47;;;6.50;65.40;;;;;;5091694;28;20055;-76
2022/01/22 13:09:51;;;;;;;5.90;3.00;;;6.50;64.00;;;;;;5092191;28;20177;-75
2022/01/22 13:12:17;;;;;;;3.80;2.30;;;6.50;63.00;;;;;;5092569;28;20083;-76
2022/01/22 13:14:43;;;;;;;15.32;9.00;;;6.60;64.40;;;;;;5092059;28;20044;-76
2022/01/22 13:17:13;;;;;;;3.50;2.20;;;6.80;64.70;;;;;;5094002;28;20028;-76
2022/01/22 13:19:39;;;;;;;5.07;2.30;;;6.90;63.90;;;;;;5094575;28;20036;-76
2022/01/22 13:22:06;;;;;;;6.70;2.22;;;7.00;62.80;;;;;;5095584;28;20031;-77
2022/01/22 13:24:32;;;;;;;5.60;2.50;;;6.80;62.40;;;;;;5095817;28;20023;-76
2022/01/22 13:27:12;;;;;;;4.15;2.22;;;6.70;63.20;;;;;;5093826;28;20377;-77
2022/01/22 13:29:41;;;;;;;4.30;2.47;;;6.60;64.00;;;;;;5095006;28;20031;-76
2022/01/22 13:38:21;;;;;;;3.20;2.10;;;6.40;63.10;;;;;;5082044;28;20059;-77
2022/01/22 13:49:06;;;;;;;4.00;2.70;;;6.40;64.00;;;;;;5068302;28;20040;-77
2022/01/22 13:51:33;;;;;;;4.95;2.50;;;6.40;63.20;;;;;;5080753;28;20033;-77
2022/01/22 13:54:02;;;;;;;4.90;2.80;;;6.40;63.20;;;;;;5089308;28;20042;-77
2022/01/22 13:56:52;;;;;;;7.57;3.85;;;6.50;63.60;;;;;;5090485;28;20431;-77
2022/01/22 13:59:28;;;;;;;3.78;2.30;;;6.40;62.40;;;;;;5091651;28;20107;-78
2022/01/22 14:02:17;;;;;;;5.20;2.42;;;6.40;63.00;;;;;;5086225;28;20024;-73
2022/01/22 14:04:44;;;;;;;11.73;4.53;;;6.30;61.70;;;;;;5088601;28;20448;-77
2022/01/22 14:07:26;;;;;;;4.03;2.15;;;6.20;62.80;;;;;;5093235;28;20028;-69
2022/01/22 14:10:00;;;;;;;9.48;3.88;;;6.20;62.80;;;;;;5090283;28;20418;-70
2022/01/22 14:12:56;;;;;;;6.88;3.78;;;6.10;62.70;;;;;;5088400;28;20032;-71
2022/01/22 14:15:29;;;;;;;5.28;2.95;;;6.10;63.00;;;;;;5085444;28;20048;-71
2022/01/22 14:21:19;;;;;;;9.98;4.78;;;6.10;63.10;;;;;;5084791;28;20381;-73
2022/01/22 14:23:46;;;;;;;8.25;2.92;;;6.20;63.50;;;;;;5077246;28;20123;-69
2022/01/22 14:26:16;;;;;;;7.20;3.25;;;6.20;63.40;;;;;;5094258;28;20069;-71
2022/01/22 14:28:51;;;;;;;8.68;3.75;;;6.20;63.10;;;;;;5091250;28;20031;-70
2022/01/22 14:31:25;;;;;;;6.70;3.35;;;6.20;63.70;;;;;;5080446;28;20028;-70
2022/01/22 14:33:52;;;;;;;7.25;4.43;;;6.20;63.90;;;;;;5073991;28;20067;-71
2022/01/22 14:36:22;;;;;;;5.88;2.78;;;6.30;63.90;;;;;;5092792;28;20032;-71
2022/01/22 14:38:56;;;;;;;4.38;2.67;;;6.20;63.70;;;;;;5092647;28;20032;-74
2022/01/22 14:44:28;;;;;;;5.70;2.63;;;6.10;63.60;;;;;;5093537;28;20105;-68
2022/01/22 14:47:11;;;;;;;4.82;2.78;;;6.20;64.00;;;;;;5088837;28;20030;-70
2022/01/22 14:49:40;;;;;;;6.60;4.13;;;6.10;63.50;;;;;;5093447;28;20032;-69
2022/01/22 14:52:09;;;;;;;5.15;2.67;;;6.20;63.50;;;;;;5092723;28;20041;-69
2022/01/22 14:54:41;;;;;;;5.85;2.88;;;6.10;63.10;;;;;;5092933;28;20078;-71
2022/01/22 14:57:09;;;;;;;4.88;2.58;;;6.10;62.60;;;;;;5093446;28;20354;-70
2022/01/22 14:59:36;;;;;;;4.18;2.63;;;6.10;63.00;;;;;;5093105;28;20085;-71
2022/01/22 15:02:03;;;;;;;9.05;3.63;;;6.10;62.50;;;;;;5074096;28;20028;-69
2022/01/22 15:04:29;;;;;;;5.25;2.90;;;6.00;62.40;;;;;;5084926;28;20024;-70
2022/01/22 15:06:57;;;;;;;7.88;3.05;;;6.00;62.20;;;;;;5090889;28;20461;-69
2022/01/22 15:09:25;;;;;;;6.63;3.13;;;5.80;61.10;;;;;;5093108;28;20081;-70
2022/01/22 15:11:51;;;;;;;6.10;3.42;;;5.90;62.20;;;;;;5092277;28;20024;-68
2022/01/22 15:14:16;;;;;;;5.97;3.00;;;5.80;61.10;;;;;;5079514;28;20048;-70
2022/01/22 15:16:52;;;;;;;4.13;2.20;;;5.80;61.40;;;;;;5054328;28;20069;-68
2022/01/22 15:19:22;;;;;;;4.30;2.65;;;5.70;60.80;;;;;;5072062;28;20024;-68
2022/01/22 15:21:50;;;;;;;4.55;2.78;;;5.70;61.20;;;;;;5072309;28;20029;-69
2022/01/22 15:24:17;;;;;;;10.02;4.97;;;5.70;61.00;;;;;;5053884;28;20024;-69
2022/01/22 15:26:44;;;;;;;5.38;2.85;;;5.70;60.60;;;;;;5046194;28;20028;-70
2022/01/22 15:29:14;;;;;;;8.00;4.88;;;5.60;60.60;;;;;;5071974;28;20016;-69